Time;durP1;ratioP1;P1;durP2;ratioP2;P2;SDS_P1;SDS_P2;PMS_P1;PMS_P2;Temp;Humidity;BMP_temperature;BMP_pressure;BME280_temperature;BME280_humidity;BME280_pressure;Samples;Min_cycle;Max_cycle;Signal;HPM_P1;HPM_P2
2020/12/30 00:02:07;;;;;;;69.53;45.03;;;2.50;99.90;;;;;;5119224;28;20303;-78
2020/12/30 00:04:33;;;;;;;54.57;40.90;;;2.50;99.90;;;;;;5107218;27;20201;-78
2020/12/30 00:06:58;;;;;;;59.83;40.77;;;2.50;99.90;;;;;;5139976;27;20222;-78
2020/12/30 00:09:24;;;;;;;58.23;40.97;;;2.50;99.90;;;;;;5087255;28;20188;-77
2020/12/30 00:11:49;;;;;;;47.03;36.60;;;2.40;99.90;;;;;;5115443;28;20546;-78
2020/12/30 00:14:15;;;;;;;46.10;35.10;;;2.40;99.90;;;;;;5082158;28;20630;-77
2020/12/30 00:16:41;;;;;;;47.37;37.73;;;2.40;99.90;;;;;;5116065;28;20174;-78
2020/12/30 00:19:06;;;;;;;44.47;35.97;;;2.30;99.90;;;;;;5117187;28;20182;-78
2020/12/30 00:21:32;;;;;;;53.83;40.27;;;2.30;99.90;;;;;;5118301;27;20635;-78
2020/12/30 00:23:58;;;;;;;65.53;42.73;;;2.20;99.90;;;;;;5117607;28;20299;-78
2020/12/30 00:26:23;;;;;;;59.03;38.97;;;2.20;99.90;;;;;;5111195;28;20297;-78
2020/12/30 00:28:49;;;;;;;61.67;42.93;;;1.90;99.90;;;;;;5099883;28;20620;-78
2020/12/30 00:31:14;;;;;;;58.37;41.63;;;1.80;99.90;;;;;;5116949;28;20186;-78
2020/12/30 00:33:40;;;;;;;54.87;39.57;;;1.90;99.90;;;;;;5118705;28;20619;-78
2020/12/30 00:36:07;;;;;;;58.10;41.93;;;2.00;99.90;;;;;;5100132;28;20178;-78
2020/12/30 00:38:33;;;;;;;62.53;42.77;;;2.10;99.90;;;;;;5118700;28;20209;-78
2020/12/30 00:40:59;;;;;;;67.03;43.53;;;2.20;99.90;;;;;;5090828;28;20186;-78
2020/12/30 00:43:24;;;;;;;63.33;44.13;;;2.40;99.90;;;;;;5114910;28;20256;-78
2020/12/30 00:45:50;;;;;;;64.07;44.83;;;2.60;99.90;;;;;;5115719;28;20236;-78
2020/12/30 00:48:15;;;;;;;63.60;43.73;;;2.70;99.90;;;;;;5098755;28;20586;-78
2020/12/30 00:50:41;;;;;;;61.00;43.00;;;2.80;99.90;;;;;;5077990;28;20172;-78
2020/12/30 00:53:07;;;;;;;58.00;42.10;;;2.70;99.90;;;;;;5095115;28;20248;-78
2020/12/30 00:55:32;;;;;;;50.53;38.77;;;2.70;99.90;;;;;;5063771;28;20570;-78
2020/12/30 00:57:58;;;;;;;48.27;36.40;;;2.70;99.90;;;;;;5083670;28;20239;-78
2020/12/30 01:00:23;;;;;;;54.97;38.43;;;2.80;99.90;;;;;;5107021;28;20189;-78
2020/12/30 01:02:49;;;;;;;66.77;43.33;;;2.80;99.90;;;;;;5116886;28;20706;-79
2020/12/30 01:05:14;;;;;;;62.47;43.73;;;2.90;99.90;;;;;;5115115;28;20204;-78
2020/12/30 01:07:40;;;;;;;61.10;43.40;;;2.90;99.90;;;;;;5097626;28;20551;-79
2020/12/30 01:10:06;;;;;;;59.33;41.90;;;2.80;99.90;;;;;;5115348;28;20190;-78
2020/12/30 01:12:32;;;;;;;55.50;39.30;;;2.70;99.90;;;;;;5097610;28;20657;-78
2020/12/30 01:14:57;;;;;;;65.07;46.03;;;2.60;99.90;;;;;;5100945;28;20184;-78
2020/12/30 01:17:27;;;;;;;67.77;46.03;;;2.70;99.90;;;;;;5078660;28;20182;-78
2020/12/30 01:19:52;;;;;;;68.27;46.47;;;2.70;99.90;;;;;;5095326;28;20643;-78
2020/12/30 01:22:18;;;;;;;50.07;25.60;;;2.70;99.90;;;;;;5078757;28;20232;-78
2020/12/30 01:24:43;;;;;;;68.10;48.77;;;2.80;99.90;;;;;;5078015;28;20224;-78
2020/12/30 01:27:09;;;;;;;76.33;49.40;;;2.90;99.90;;;;;;5094597;28;20649;-78
2020/12/30 01:29:35;;;;;;;68.10;46.40;;;2.90;99.90;;;;;;5110711;28;20224;-78
2020/12/30 01:32:02;;;;;;;79.03;49.70;;;2.90;99.90;;;;;;5116903;28;20177;-78
2020/12/30 01:34:28;;;;;;;70.10;46.10;;;2.90;99.90;;;;;;5114109;28;20602;-78
2020/12/30 01:36:54;;;;;;;69.83;44.47;;;2.60;99.90;;;;;;5097958;28;20206;-78
2020/12/30 01:39:20;;;;;;;67.87;45.00;;;2.70;99.90;;;;;;5115181;28;20219;-78
2020/12/30 01:41:46;;;;;;;68.37;43.40;;;2.60;99.90;;;;;;5113446;28;20186;-79
2020/12/30 01:44:12;;;;;;;64.73;43.90;;;2.60;99.90;;;;;;5097420;28;20178;-79
2020/12/30 01:46:46;;;;;;;66.20;43.67;;;2.50;99.90;;;;;;5096475;28;20198;-79
2020/12/30 01:49:22;;;;;;;58.83;39.43;;;2.40;99.90;;;;;;5115864;28;20238;-78
2020/12/30 01:51:50;;;;;;;53.40;37.97;;;2.30;99.90;;;;;;5097018;28;20163;-78
2020/12/30 01:54:16;;;;;;;52.50;38.87;;;2.30;99.90;;;;;;5093914;28;20623;-78
2020/12/30 01:56:43;;;;;;;67.30;43.07;;;2.20;99.90;;;;;;5099957;28;20215;-78
2020/12/30 01:59:11;;;;;;;65.03;42.77;;;2.10;99.90;;;;;;5113542;28;20201;-78
2020/12/30 02:01:42;;;;;;;59.93;40.67;;;2.10;99.90;;;;;;5115491;28;20610;-78
2020/12/30 02:04:10;;;;;;;49.13;37.50;;;2.00;99.90;;;;;;5114551;28;20170;-78
2020/12/30 02:06:37;;;;;;;69.77;43.20;;;2.00;99.90;;;;;;5113740;28;20634;-78
2020/12/30 02:09:04;;;;;;;38.67;21.60;;;1.90;99.90;;;;;;5114333;28;20188;-78
2020/12/30 02:11:31;;;;;;;44.30;20.60;;;1.90;99.90;;;;;;5117066;28;20197;-79
2020/12/30 02:14:23;;;;;;;37.27;20.27;;;1.80;99.90;;;;;;5109524;28;20175;-78
2020/12/30 02:16:53;;;;;;;42.73;22.77;;;1.80;99.90;;;;;;5110916;28;20192;-78
2020/12/30 02:19:20;;;;;;;83.90;48.50;;;1.80;99.90;;;;;;5114917;28;20205;-78
2020/12/30 02:21:47;;;;;;;112.07;56.53;;;1.80;99.90;;;;;;5115088;28;20174;-78
2020/12/30 02:24:17;;;;;;;101.77;53.40;;;2.00;99.90;;;;;;5116281;28;20562;-78
2020/12/30 02:26:43;;;;;;;77.13;47.93;;;1.80;99.90;;;;;;5116707;28;20225;-78
2020/12/30 02:29:08;;;;;;;90.87;49.80;;;1.70;99.90;;;;;;5115567;28;20174;-78
2020/12/30 02:31:34;;;;;;;88.10;49.97;;;1.60;99.90;;;;;;5115541;28;20174;-78
2020/12/30 02:34:00;;;;;;;44.77;21.70;;;1.70;99.90;;;;;;5098832;28;20188;-78
2020/12/30 02:36:25;;;;;;;52.90;20.00;;;1.60;99.90;;;;;;5099431;28;20169;-78
2020/12/30 02:38:52;;;;;;;78.03;46.77;;;1.60;99.90;;;;;;5081576;28;20197;-78
2020/12/30 02:41:18;;;;;;;77.97;46.43;;;1.60;99.90;;;;;;5087313;28;20184;-78
2020/12/30 02:43:44;;;;;;;40.60;20.20;;;1.70;99.90;;;;;;5117288;28;20245;-78
2020/12/30 02:46:09;;;;;;;72.17;46.50;;;1.60;99.90;;;;;;5099398;28;20210;-78
2020/12/30 02:48:35;;;;;;;74.83;49.23;;;1.60;99.90;;;;;;5118282;28;20204;-78
2020/12/30 02:51:00;;;;;;;73.97;47.63;;;1.60;99.90;;;;;;5082535;28;20166;-78
2020/12/30 02:53:26;;;;;;;80.20;49.97;;;1.60;99.90;;;;;;5115746;28;20178;-78
2020/12/30 02:55:52;;;;;;;91.73;52.00;;;1.70;99.90;;;;;;5115779;28;20182;-78
2020/12/30 02:58:17;;;;;;;84.43;52.77;;;1.80;99.90;;;;;;5117960;28;20170;-78
2020/12/30 03:00:43;;;;;;;86.17;52.43;;;1.90;99.90;;;;;;5098469;28;20204;-78
2020/12/30 03:03:09;;;;;;;90.80;53.27;;;2.10;99.90;;;;;;5093171;28;20205;-79
2020/12/30 03:05:34;;;;;;;94.27;53.33;;;2.20;99.90;;;;;;5100340;28;20689;-78
2020/12/30 03:08:00;;;;;;;81.00;51.60;;;2.40;99.90;;;;;;5118336;28;20208;-78
2020/12/30 03:10:25;;;;;;;89.30;52.67;;;2.50;99.90;;;;;;5119235;28;20174;-78
2020/12/30 03:12:52;;;;;;;83.13;52.30;;;2.70;99.90;;;;;;5117798;28;20174;-78
2020/12/30 03:15:17;;;;;;;87.07;53.00;;;2.80;99.90;;;;;;5117066;28;20654;-78
2020/12/30 03:17:43;;;;;;;87.30;51.87;;;3.10;99.90;;;;;;5119118;28;20180;-78
2020/12/30 03:20:08;;;;;;;94.07;53.93;;;3.10;99.90;;;;;;5118645;28;20723;-78
2020/12/30 03:22:34;;;;;;;82.73;52.67;;;3.10;99.90;;;;;;5096960;28;20175;-78
2020/12/30 03:25:38;;;;;;;91.83;52.70;;;3.10;99.90;;;;;;5115559;28;20322;-78
2020/12/30 03:28:04;;;;;;;94.07;54.23;;;3.20;99.90;;;;;;5110095;28;20169;-78
2020/12/30 03:30:30;;;;;;;88.87;53.33;;;3.20;99.90;;;;;;5100915;28;20189;-78
2020/12/30 03:32:56;;;;;;;87.27;52.33;;;3.20;99.90;;;;;;5102287;28;20176;-78
2020/12/30 03:35:25;;;;;;;90.77;54.10;;;3.30;99.90;;;;;;5114199;28;20180;-78
2020/12/30 03:37:52;;;;;;;82.03;52.53;;;3.30;99.90;;;;;;5097878;28;20179;-78
2020/12/30 03:40:18;;;;;;;94.37;56.10;;;3.50;99.90;;;;;;5116512;28;20611;-78
2020/12/30 03:42:44;;;;;;;89.00;54.40;;;3.50;99.90;;;;;;5078601;28;20178;-78
2020/12/30 03:45:09;;;;;;;84.30;53.70;;;3.50;99.90;;;;;;5096086;28;20227;-78
2020/12/30 03:47:35;;;;;;;84.23;52.87;;;3.50;99.90;;;;;;5096532;28;20573;-78
2020/12/30 03:50:01;;;;;;;86.27;53.33;;;3.50;99.90;;;;;;5097507;28;20718;-78
2020/12/30 03:52:26;;;;;;;91.70;54.30;;;3.50;99.90;;;;;;5095617;28;20180;-77
2020/12/30 03:54:52;;;;;;;88.83;52.73;;;3.70;99.90;;;;;;5100151;28;20221;-77
2020/12/30 03:57:17;;;;;;;84.10;53.10;;;3.60;99.90;;;;;;5082671;28;20225;-78
2020/12/30 03:59:43;;;;;;;86.87;53.67;;;3.60;99.90;;;;;;5100019;28;20191;-78
2020/12/30 04:02:09;;;;;;;82.77;52.10;;;3.50;99.90;;;;;;5117350;28;20189;-77
2020/12/30 04:04:34;;;;;;;82.17;52.83;;;3.60;99.90;;;;;;5100595;28;20227;-78
2020/12/30 04:07:00;;;;;;;86.13;53.67;;;3.60;99.90;;;;;;5100328;28;20208;-78
2020/12/30 04:09:25;;;;;;;85.50;53.27;;;3.50;99.90;;;;;;5117778;28;20260;-78
2020/12/30 04:11:51;;;;;;;82.17;52.97;;;3.40;99.90;;;;;;5084102;28;20175;-78
2020/12/30 04:14:17;;;;;;;74.83;50.90;;;3.40;99.90;;;;;;5115444;27;20187;-78
2020/12/30 04:16:43;;;;;;;79.63;51.90;;;3.20;99.90;;;;;;5110687;28;20170;-78
2020/12/30 04:19:09;;;;;;;79.90;52.20;;;3.30;99.90;;;;;;5120404;28;20318;-78
2020/12/30 04:21:34;;;;;;;83.40;52.43;;;3.30;99.90;;;;;;5119377;28;20700;-77
2020/12/30 04:24:00;;;;;;;86.57;53.73;;;3.30;99.90;;;;;;5102724;28;20217;-78
2020/12/30 04:26:26;;;;;;;76.30;52.00;;;3.30;99.90;;;;;;5102905;28;20260;-78
2020/12/30 04:28:51;;;;;;;78.77;51.80;;;3.40;99.90;;;;;;5099040;28;20184;-78
2020/12/30 04:31:18;;;;;;;79.33;53.37;;;3.50;99.90;;;;;;5111782;28;20209;-78
2020/12/30 04:33:44;;;;;;;84.03;54.07;;;3.70;99.90;;;;;;5120416;28;20172;-77
2020/12/30 04:36:11;;;;;;;73.47;53.00;;;3.60;99.90;;;;;;5119393;28;20220;-78
2020/12/30 04:38:37;;;;;;;82.30;51.10;;;3.60;99.90;;;;;;5118422;28;20245;-78
2020/12/30 04:41:05;;;;;;;78.37;52.73;;;3.50;99.90;;;;;;5095404;28;20188;-78
2020/12/30 04:43:33;;;;;;;75.40;52.83;;;3.40;99.90;;;;;;5104827;28;20238;-77
2020/12/30 04:45:59;;;;;;;76.70;51.67;;;3.50;99.90;;;;;;5097001;28;20710;-78
2020/12/30 04:48:26;;;;;;;74.03;51.23;;;3.30;99.90;;;;;;5098744;28;20176;-78
2020/12/30 04:50:55;;;;;;;72.30;50.60;;;3.30;99.90;;;;;;5098387;28;20181;-78
2020/12/30 04:53:22;;;;;;;67.40;48.63;;;3.50;99.90;;;;;;5098535;28;20179;-78
2020/12/30 04:55:50;;;;;;;71.03;50.13;;;3.50;99.90;;;;;;5080215;28;20188;-78
2020/12/30 04:58:17;;;;;;;74.97;51.50;;;3.50;99.90;;;;;;5097799;28;20209;-78
2020/12/30 05:00:44;;;;;;;68.63;49.77;;;3.40;99.90;;;;;;5117853;28;20178;-78
2020/12/30 05:03:11;;;;;;;70.43;49.97;;;3.30;99.90;;;;;;5109266;28;20208;-78
2020/12/30 05:05:37;;;;;;;67.37;48.93;;;3.20;99.90;;;;;;5081922;28;20577;-77
2020/12/30 05:08:14;;;;;;;68.97;48.80;;;3.10;99.90;;;;;;5100976;28;20179;-77
2020/12/30 05:10:41;;;;;;;66.70;47.53;;;3.20;99.90;;;;;;5112757;28;20241;-78
2020/12/30 05:13:08;;;;;;;66.30;48.70;;;3.20;99.90;;;;;;5118569;28;20182;-78
2020/12/30 05:15:34;;;;;;;66.97;50.00;;;3.20;99.90;;;;;;5116791;28;20190;-78
2020/12/30 05:18:04;;;;;;;68.60;48.90;;;3.20;99.90;;;;;;5117186;28;20324;-78
2020/12/30 05:20:36;;;;;;;69.53;50.13;;;3.20;99.90;;;;;;5116477;28;20184;-78
2020/12/30 05:23:08;;;;;;;73.17;50.60;;;3.20;99.90;;;;;;5115966;28;20171;-77
2020/12/30 05:25:42;;;;;;;72.23;51.53;;;3.30;99.90;;;;;;5115580;28;20201;-77
2020/12/30 05:28:10;;;;;;;65.93;49.13;;;3.30;99.90;;;;;;5115442;28;20181;-78
2020/12/30 05:30:36;;;;;;;64.73;48.43;;;3.40;99.90;;;;;;5116870;28;20257;-77
2020/12/30 05:33:04;;;;;;;66.90;50.07;;;3.40;99.90;;;;;;5115847;28;20724;-77
2020/12/30 05:35:30;;;;;;;67.77;49.43;;;3.50;99.90;;;;;;5108545;28;20529;-77
2020/12/30 05:37:56;;;;;;;66.43;49.10;;;3.60;99.90;;;;;;5116501;28;20616;-77
2020/12/30 05:40:24;;;;;;;66.80;48.70;;;3.50;99.90;;;;;;5110832;28;20227;-78
2020/12/30 05:42:51;;;;;;;66.33;47.97;;;3.40;99.90;;;;;;5096872;28;20226;-77
2020/12/30 05:45:21;;;;;;;64.13;46.10;;;3.30;99.90;;;;;;5096824;28;20210;-77
2020/12/30 05:47:48;;;;;;;61.73;46.00;;;3.30;99.90;;;;;;5098247;28;20162;-77
2020/12/30 05:50:24;;;;;;;55.30;43.60;;;3.30;99.90;;;;;;5116718;28;20189;-77
2020/12/30 05:52:52;;;;;;;58.83;44.27;;;3.40;99.90;;;;;;5116932;28;20176;-77
2020/12/30 05:55:26;;;;;;;55.73;43.93;;;3.30;99.90;;;;;;5115725;28;20189;-77
2020/12/30 05:57:53;;;;;;;58.63;44.20;;;3.40;99.90;;;;;;5100457;28;20570;-78
2020/12/30 06:00:18;;;;;;;57.33;43.23;;;3.30;99.90;;;;;;5115860;28;20656;-77
2020/12/30 06:02:46;;;;;;;49.43;40.73;;;3.20;99.90;;;;;;5103607;28;20215;-77
2020/12/30 06:05:24;;;;;;;52.83;42.70;;;3.20;99.90;;;;;;5109623;28;20209;-78
2020/12/30 06:07:51;;;;;;;51.77;41.13;;;3.30;99.90;;;;;;5117437;28;20196;-79
2020/12/30 06:10:19;;;;;;;52.77;40.63;;;3.40;99.90;;;;;;5100084;28;20233;-78
2020/12/30 06:12:47;;;;;;;53.27;40.20;;;3.30;99.90;;;;;;5118195;28;20552;-78
2020/12/30 06:15:19;;;;;;;52.23;41.87;;;3.30;99.90;;;;;;5114717;28;20544;-78
2020/12/30 06:18:02;;;;;;;53.90;40.43;;;3.40;99.90;;;;;;5111235;28;20661;-79
2020/12/30 06:20:39;;;;;;;50.07;40.17;;;3.40;99.90;;;;;;5102545;28;20176;-79
2020/12/30 06:23:06;;;;;;;53.63;40.27;;;3.30;99.90;;;;;;5087792;28;20601;-79
2020/12/30 06:25:34;;;;;;;51.90;40.33;;;3.50;99.90;;;;;;5108664;28;20262;-79
2020/12/30 06:28:11;;;;;;;54.43;41.53;;;3.50;99.90;;;;;;5096108;28;20436;-79
2020/12/30 06:30:38;;;;;;;52.50;39.97;;;3.50;99.90;;;;;;5115958;28;20296;-79
2020/12/30 06:33:05;;;;;;;52.57;39.00;;;3.40;99.90;;;;;;5098960;28;20630;-78
2020/12/30 06:35:32;;;;;;;52.43;39.53;;;3.50;99.90;;;;;;5091593;28;20185;-78
2020/12/30 06:37:59;;;;;;;51.73;39.43;;;3.50;99.90;;;;;;5106426;28;20181;-77
2020/12/30 06:40:26;;;;;;;53.60;40.20;;;3.60;99.90;;;;;;5117177;28;20251;-78
2020/12/30 06:42:57;;;;;;;53.30;39.10;;;3.60;99.90;;;;;;5116236;28;20166;-77
2020/12/30 06:45:44;;;;;;;54.53;39.87;;;3.50;99.90;;;;;;5100559;28;20194;-77
2020/12/30 06:48:11;;;;;;;51.00;39.47;;;3.50;99.90;;;;;;5097536;28;20251;-77
2020/12/30 06:50:38;;;;;;;52.10;38.53;;;3.30;99.90;;;;;;5097423;28;20198;-77
2020/12/30 06:53:32;;;;;;;55.00;40.67;;;3.30;99.90;;;;;;5098354;28;20192;-77
2020/12/30 06:56:02;;;;;;;51.53;39.43;;;3.40;99.90;;;;;;5096214;28;20178;-77
2020/12/30 06:58:50;;;;;;;49.20;38.30;;;3.40;99.90;;;;;;5096502;28;20184;-77
2020/12/30 07:01:20;;;;;;;52.07;38.90;;;3.50;99.90;;;;;;5114827;28;20633;-77
2020/12/30 07:03:47;;;;;;;54.80;39.70;;;3.60;99.90;;;;;;5099550;28;20176;-77
2020/12/30 07:06:36;;;;;;;48.37;38.50;;;3.70;99.90;;;;;;5110638;28;20191;-77
2020/12/30 07:09:06;;;;;;;48.10;38.43;;;3.70;99.90;;;;;;5095878;28;20171;-77
2020/12/30 07:12:05;;;;;;;49.80;37.83;;;3.70;99.90;;;;;;5096730;28;20178;-77
2020/12/30 07:14:32;;;;;;;55.87;37.87;;;3.80;99.90;;;;;;5108036;28;20199;-77
2020/12/30 07:17:18;;;;;;;53.57;38.97;;;3.60;99.90;;;;;;5092541;28;20552;-77
2020/12/30 07:19:44;;;;;;;57.93;39.23;;;3.60;99.90;;;;;;5096982;28;20163;-78
2020/12/30 07:22:13;;;;;;;54.07;38.87;;;3.60;99.90;;;;;;5097118;28;20179;-77
2020/12/30 07:24:51;;;;;;;55.93;39.70;;;3.60;99.90;;;;;;5113135;28;20242;-78
2020/12/30 07:27:17;;;;;;;54.10;39.23;;;3.70;99.90;;;;;;5116818;28;20192;-78
2020/12/30 07:29:46;;;;;;;54.00;38.90;;;3.70;99.90;;;;;;5116694;28;20670;-78
2020/12/30 07:32:13;;;;;;;54.83;40.30;;;3.90;99.90;;;;;;5116045;28;20206;-78
2020/12/30 07:34:44;;;;;;;55.70;40.57;;;3.80;99.90;;;;;;5115813;28;20534;-78
2020/12/30 07:37:11;;;;;;;52.17;38.63;;;3.70;99.90;;;;;;5116758;28;20643;-78
2020/12/30 07:39:41;;;;;;;53.93;40.03;;;3.60;99.90;;;;;;5116313;28;20189;-77
2020/12/30 07:42:10;;;;;;;48.93;38.07;;;3.70;99.90;;;;;;5115062;28;20185;-78
2020/12/30 07:44:45;;;;;;;54.43;39.67;;;3.80;99.90;;;;;;5115386;28;20231;-78
2020/12/30 07:47:11;;;;;;;49.43;36.93;;;3.80;99.90;;;;;;5116539;28;20259;-78
2020/12/30 07:49:37;;;;;;;53.00;39.43;;;3.70;99.90;;;;;;5115158;28;20238;-77
2020/12/30 07:52:03;;;;;;;51.97;39.73;;;3.90;99.90;;;;;;5114924;28;20195;-77
2020/12/30 07:54:30;;;;;;;53.47;39.63;;;4.00;99.90;;;;;;5096196;28;20202;-78
2020/12/30 07:57:09;;;;;;;58.07;40.37;;;4.00;99.90;;;;;;5116212;28;20186;-77
2020/12/30 07:59:56;;;;;;;51.57;40.00;;;3.90;99.90;;;;;;5113702;28;20257;-78
2020/12/30 08:02:24;;;;;;;58.97;41.67;;;4.00;99.90;;;;;;5110218;28;20190;-77
2020/12/30 08:05:00;;;;;;;56.33;40.67;;;3.90;99.90;;;;;;5115571;28;20176;-77
2020/12/30 08:07:28;;;;;;;58.27;40.00;;;4.00;99.90;;;;;;5095303;28;20224;-77
2020/12/30 08:09:54;;;;;;;54.17;38.83;;;4.00;99.90;;;;;;5088388;28;20181;-78
2020/12/30 08:12:19;;;;;;;59.13;40.73;;;3.90;99.90;;;;;;5107722;28;20261;-78
2020/12/30 08:14:45;;;;;;;57.70;38.67;;;3.90;99.90;;;;;;5100293;28;20560;-77
2020/12/30 08:17:15;;;;;;;56.23;39.33;;;4.10;99.90;;;;;;5115686;28;20187;-78
2020/12/30 08:19:48;;;;;;;56.53;40.43;;;4.10;99.90;;;;;;5114958;28;20691;-83
2020/12/30 08:22:20;;;;;;;60.93;40.03;;;4.20;99.90;;;;;;5114719;28;20186;-83
2020/12/30 08:24:49;;;;;;;57.60;41.43;;;4.30;99.90;;;;;;5110450;27;20703;-82
2020/12/30 08:27:20;;;;;;;52.87;38.73;;;4.40;99.90;;;;;;5114698;28;20575;-82
2020/12/30 08:29:46;;;;;;;53.33;39.53;;;4.40;99.90;;;;;;5097905;28;20192;-82
2020/12/30 08:32:17;;;;;;;55.93;38.97;;;4.40;99.90;;;;;;5114277;28;20177;-82
2020/12/30 08:34:56;;;;;;;56.60;39.60;;;4.50;99.90;;;;;;5095479;28;20153;-82
2020/12/30 08:37:30;;;;;;;56.83;39.47;;;4.50;99.90;;;;;;5104581;28;20217;-81
2020/12/30 08:43:27;;;;;;;60.43;41.17;;;4.40;99.90;;;;;;5014582;28;20225;-81
2020/12/30 08:45:52;;;;;;;54.87;39.50;;;4.30;99.90;;;;;;5094794;27;20205;-82
2020/12/30 08:48:19;;;;;;;57.17;39.53;;;4.20;99.90;;;;;;5113827;27;20213;-82
2020/12/30 08:50:46;;;;;;;61.53;41.30;;;4.40;99.90;;;;;;5096160;28;20179;-82
2020/12/30 08:53:12;;;;;;;50.73;37.70;;;4.40;99.90;;;;;;5112764;28;20177;-83
2020/12/30 08:55:38;;;;;;;55.57;38.87;;;4.50;99.90;;;;;;5099461;28;20606;-82
2020/12/30 08:58:04;;;;;;;54.47;39.30;;;4.60;99.90;;;;;;5100218;27;20632;-82
2020/12/30 09:00:37;;;;;;;59.43;39.93;;;4.70;99.90;;;;;;5108877;27;20306;-81
2020/12/30 09:03:13;;;;;;;50.27;38.73;;;4.50;99.90;;;;;;5114942;27;20188;-82
2020/12/30 09:05:40;;;;;;;52.93;38.13;;;4.40;99.90;;;;;;5113566;27;20200;-82
2020/12/30 09:08:16;;;;;;;56.83;38.67;;;4.40;99.90;;;;;;5121400;27;20183;-82
2020/12/30 09:10:43;;;;;;;54.33;38.17;;;4.50;99.90;;;;;;5119845;27;20174;-82
2020/12/30 09:13:17;;;;;;;52.43;38.50;;;4.60;99.90;;;;;;5118571;27;20173;-81
2020/12/30 09:15:44;;;;;;;55.13;37.87;;;4.60;99.90;;;;;;5093148;27;20184;-82
2020/12/30 09:18:12;;;;;;;56.17;39.23;;;4.50;99.90;;;;;;5122912;27;20585;-82
2020/12/30 09:20:38;;;;;;;53.00;39.87;;;4.60;99.90;;;;;;5115865;27;20279;-82
2020/12/30 09:23:04;;;;;;;53.90;37.67;;;4.70;99.90;;;;;;5117559;27;20702;-82
2020/12/30 09:25:32;;;;;;;54.87;38.80;;;4.80;99.90;;;;;;5114019;27;20301;-82
2020/12/30 09:27:59;;;;;;;53.57;38.83;;;4.70;99.90;;;;;;5121582;27;20175;-82
2020/12/30 09:30:26;;;;;;;52.40;38.47;;;4.90;99.90;;;;;;5121258;27;20203;-83
2020/12/30 09:32:54;;;;;;;55.77;37.27;;;4.80;99.90;;;;;;5117787;27;20176;-82
2020/12/30 09:35:27;;;;;;;54.93;37.30;;;4.80;99.90;;;;;;5103443;27;20418;-84
2020/12/30 09:37:58;;;;;;;49.10;35.50;;;4.80;99.90;;;;;;5116681;27;20188;-83
2020/12/30 09:40:24;;;;;;;49.37;35.13;;;4.80;99.90;;;;;;5108986;27;20517;-84
2020/12/30 09:42:51;;;;;;;48.03;35.93;;;4.80;99.90;;;;;;5112936;28;20530;-81
2020/12/30 09:45:19;;;;;;;45.80;34.77;;;4.70;99.90;;;;;;5109210;28;20229;-82
2020/12/30 09:47:45;;;;;;;47.83;35.67;;;4.70;99.90;;;;;;5116760;27;20216;-83
2020/12/30 09:50:13;;;;;;;47.30;34.73;;;4.80;99.90;;;;;;5092585;28;20274;-82
2020/12/30 09:52:41;;;;;;;51.13;33.80;;;4.80;99.90;;;;;;5103737;28;20275;-82
2020/12/30 09:55:08;;;;;;;43.00;33.97;;;4.90;99.90;;;;;;5110901;28;20191;-82
2020/12/30 09:57:34;;;;;;;44.97;33.90;;;5.00;99.90;;;;;;5113973;27;20182;-83
2020/12/30 10:00:01;;;;;;;44.97;33.87;;;5.00;99.90;;;;;;5112958;28;20177;-82
2020/12/30 10:02:27;;;;;;;42.23;33.57;;;5.10;99.90;;;;;;5113056;28;20176;-83
2020/12/30 10:04:53;;;;;;;47.17;33.33;;;5.10;99.90;;;;;;5114210;28;20169;-82
2020/12/30 10:07:19;;;;;;;43.13;32.30;;;5.10;99.90;;;;;;5112515;28;20201;-83
2020/12/30 10:09:44;;;;;;;46.70;34.23;;;5.10;99.90;;;;;;5112735;28;20176;-83
2020/12/30 10:12:10;;;;;;;44.10;33.30;;;5.00;99.90;;;;;;5080861;28;20218;-84
2020/12/30 10:14:36;;;;;;;43.60;32.73;;;5.00;99.90;;;;;;5122780;27;20196;-82
2020/12/30 10:17:01;;;;;;;47.03;33.00;;;5.00;99.90;;;;;;5109354;28;20170;-83
2020/12/30 10:19:27;;;;;;;43.43;32.20;;;5.30;99.90;;;;;;5113738;28;20274;-82
2020/12/30 10:21:53;;;;;;;44.00;33.90;;;5.40;99.90;;;;;;5100048;28;20195;-82
2020/12/30 10:24:18;;;;;;;40.83;31.40;;;5.40;99.90;;;;;;5110120;28;20274;-82
2020/12/30 10:26:44;;;;;;;44.43;31.93;;;5.40;99.90;;;;;;5095575;28;20196;-83
2020/12/30 10:29:10;;;;;;;39.37;31.13;;;5.50;99.90;;;;;;5113515;28;20180;-82
2020/12/30 10:31:36;;;;;;;41.77;30.17;;;5.60;99.90;;;;;;5113498;28;20194;-83
2020/12/30 10:34:02;;;;;;;39.83;31.07;;;5.70;99.90;;;;;;5091985;28;20647;-83
2020/12/30 10:36:32;;;;;;;39.97;29.83;;;5.90;99.90;;;;;;5106357;28;20521;-83
2020/12/30 10:39:01;;;;;;;33.80;28.63;;;5.80;99.90;;;;;;5108947;28;20736;-83
2020/12/30 10:41:29;;;;;;;38.30;29.23;;;5.80;99.90;;;;;;5098567;28;20186;-83
2020/12/30 10:43:54;;;;;;;33.63;27.47;;;5.90;99.90;;;;;;5096779;28;20276;-83
2020/12/30 10:46:20;;;;;;;41.47;27.77;;;6.10;99.90;;;;;;5109318;28;20280;-83
2020/12/30 10:48:47;;;;;;;31.23;27.13;;;6.10;99.90;;;;;;5104155;28;20188;-83
2020/12/30 10:51:17;;;;;;;32.57;26.63;;;6.00;99.90;;;;;;5110357;28;20177;-82
2020/12/30 10:53:44;;;;;;;31.03;25.83;;;6.10;99.90;;;;;;5107819;28;20172;-83
2020/12/30 10:56:12;;;;;;;30.53;25.53;;;6.20;99.90;;;;;;5103139;28;20188;-83
2020/12/30 10:58:38;;;;;;;28.73;24.37;;;6.20;99.90;;;;;;5110470;28;20189;-83
2020/12/30 11:01:13;;;;;;;27.07;23.77;;;6.20;99.90;;;;;;5107480;28;20524;-83
2020/12/30 11:03:40;;;;;;;32.77;25.40;;;6.50;99.90;;;;;;5111878;28;20551;-83
2020/12/30 11:06:07;;;;;;;29.30;22.77;;;6.70;99.90;;;;;;5110853;28;20341;-83
2020/12/30 11:08:33;;;;;;;26.97;23.37;;;6.90;99.90;;;;;;5092920;28;20584;-82
2020/12/30 11:11:00;;;;;;;24.70;20.33;;;6.90;99.90;;;;;;5112773;28;20645;-84
2020/12/30 11:13:26;;;;;;;27.53;22.47;;;6.80;99.90;;;;;;5108353;28;20177;-83
2020/12/30 11:15:53;;;;;;;26.10;20.63;;;6.70;99.90;;;;;;5100229;28;20713;-77
2020/12/30 11:18:20;;;;;;;24.57;20.80;;;6.80;99.90;;;;;;5107415;28;20197;-83
2020/12/30 11:20:46;;;;;;;25.73;21.30;;;6.90;99.90;;;;;;5092906;28;20634;-83
2020/12/30 11:23:12;;;;;;;23.93;18.53;;;6.70;99.90;;;;;;5110978;28;20259;-82
2020/12/30 11:25:38;;;;;;;24.80;20.60;;;6.70;99.90;;;;;;5086600;28;20287;-83
2020/12/30 11:28:04;;;;;;;22.50;19.77;;;6.60;99.90;;;;;;5114464;28;20174;-84
2020/12/30 11:30:30;;;;;;;22.93;19.67;;;6.70;99.90;;;;;;5114414;28;20276;-83
2020/12/30 11:32:57;;;;;;;21.87;18.50;;;6.90;99.90;;;;;;5115385;28;20195;-81
2020/12/30 11:35:23;;;;;;;24.27;18.63;;;6.90;99.90;;;;;;5115036;28;20204;-81
2020/12/30 11:37:48;;;;;;;24.60;18.30;;;6.90;99.90;;;;;;5114730;28;20607;-80
2020/12/30 11:40:14;;;;;;;18.57;16.57;;;7.10;99.90;;;;;;5113511;28;20298;-80
2020/12/30 11:42:40;;;;;;;19.50;15.77;;;7.20;99.90;;;;;;5115967;28;20176;-81
2020/12/30 11:45:07;;;;;;;17.63;15.40;;;7.20;99.90;;;;;;5114335;28;20248;-81
2020/12/30 11:47:33;;;;;;;18.50;15.13;;;7.20;99.90;;;;;;5115971;28;20611;-79
2020/12/30 11:49:59;;;;;;;21.07;14.57;;;7.00;99.90;;;;;;5115501;28;20185;-79
2020/12/30 11:52:27;;;;;;;18.30;14.77;;;7.00;99.90;;;;;;5114504;28;20544;-80
2020/12/30 11:54:53;;;;;;;15.87;14.17;;;7.20;99.90;;;;;;5116059;28;20539;-80
2020/12/30 11:57:19;;;;;;;18.37;14.30;;;7.30;99.90;;;;;;5106770;28;20178;-81
2020/12/30 11:59:45;;;;;;;15.50;13.43;;;7.30;99.90;;;;;;5116123;28;20653;-80
2020/12/30 12:02:14;;;;;;;17.13;13.67;;;7.40;99.90;;;;;;5112906;28;20233;-81
2020/12/30 12:04:39;;;;;;;17.03;13.20;;;7.50;99.90;;;;;;5115398;27;20185;-79
2020/12/30 12:07:06;;;;;;;14.60;12.90;;;7.40;99.90;;;;;;5115405;27;20224;-76
2020/12/30 12:09:32;;;;;;;15.80;12.73;;;7.30;99.90;;;;;;5115569;27;20185;-76
2020/12/30 12:11:59;;;;;;;13.73;12.30;;;7.40;99.90;;;;;;5097722;28;20653;-76
2020/12/30 12:14:24;;;;;;;16.27;12.83;;;7.20;99.90;;;;;;5097342;28;20178;-77
2020/12/30 12:16:55;;;;;;;14.67;12.50;;;7.10;99.90;;;;;;5096410;28;20196;-77
2020/12/30 12:19:21;;;;;;;14.10;12.70;;;6.90;99.90;;;;;;5129813;27;20184;-76
2020/12/30 12:21:47;;;;;;;14.70;13.00;;;6.70;99.90;;;;;;5110042;28;20177;-76
2020/12/30 12:24:14;;;;;;;15.57;13.93;;;6.80;99.90;;;;;;5115807;28;20181;-77
2020/12/30 12:26:40;;;;;;;18.73;13.07;;;6.80;99.90;;;;;;5092105;27;20676;-77
2020/12/30 12:29:33;;;;;;;14.87;13.27;;;6.80;99.90;;;;;;5110822;27;20217;-76
2020/12/30 12:32:04;;;;;;;15.97;13.30;;;6.70;99.90;;;;;;5111093;27;20193;-76
2020/12/30 12:34:30;;;;;;;15.80;13.47;;;6.70;99.90;;;;;;5100462;27;20266;-77
2020/12/30 12:36:56;;;;;;;15.83;13.87;;;6.70;99.90;;;;;;5115188;27;20701;-77
2020/12/30 12:39:22;;;;;;;16.13;13.97;;;6.70;99.90;;;;;;5120612;27;20288;-77
2020/12/30 12:41:55;;;;;;;17.73;13.63;;;6.90;99.90;;;;;;5109940;28;20191;-76
2020/12/30 12:44:22;;;;;;;14.70;13.03;;;7.10;99.90;;;;;;5100869;27;20181;-76